createdAt,value
2017-07-06T00:00:11.602Z,0
2017-07-06T00:01:13.312Z,0
2017-07-06T00:02:15.408Z,0
2017-07-06T00:03:17.201Z,0
2017-07-06T00:04:19.362Z,0
2017-07-06T00:05:21.175Z,0
2017-07-06T00:06:22.895Z,0
2017-07-06T00:07:24.589Z,0
2017-07-06T00:08:26.367Z,0
2017-07-06T00:09:28.155Z,0
2017-07-06T00:10:29.892Z,0
2017-07-06T00:11:31.695Z,0
2017-07-06T00:12:33.477Z,0
2017-07-06T00:13:35.474Z,0
2017-07-06T00:14:37.257Z,0
2017-07-06T00:15:39.068Z,0
2017-07-06T00:16:40.764Z,0
2017-07-06T00:17:42.472Z,0
2017-07-06T00:18:44.139Z,0
2017-07-06T00:19:45.896Z,0
2017-07-06T00:20:48.047Z,0
2017-07-06T00:21:49.818Z,0
2017-07-06T00:22:51.495Z,0
2017-07-06T00:23:53.176Z,0
2017-07-06T00:24:54.893Z,0
2017-07-06T00:25:56.563Z,0
2017-07-06T00:26:58.227Z,0
2017-07-06T00:27:59.955Z,0
2017-07-06T00:29:01.795Z,0
2017-07-06T00:30:03.594Z,0
2017-07-06T00:31:05.821Z,0
2017-07-06T00:32:08.113Z,0
2017-07-06T00:33:09.801Z,0
2017-07-06T00:34:11.477Z,0
2017-07-06T00:35:13.920Z,0
2017-07-06T00:36:16.422Z,0
2017-07-06T00:37:18.024Z,0
2017-07-06T00:38:19.800Z,0
2017-07-06T00:39:21.484Z,0
2017-07-06T00:40:24.290Z,0
2017-07-06T00:41:26.003Z,0
2017-07-06T00:42:27.711Z,0
2017-07-06T00:43:29.796Z,0
2017-07-06T00:44:31.493Z,0
2017-07-06T00:45:33.496Z,0
2017-07-06T00:46:35.218Z,0
2017-07-06T00:47:36.964Z,0
2017-07-06T00:48:38.732Z,0
2017-07-06T00:49:40.416Z,0
2017-07-06T00:50:42.288Z,0
2017-07-06T00:51:44.117Z,0
2017-07-06T00:52:45.906Z,0
2017-07-06T00:53:47.598Z,0
2017-07-06T00:54:49.455Z,0
2017-07-06T00:55:51.180Z,0
2017-07-06T00:56:52.887Z,0
2017-07-06T00:57:54.554Z,0
2017-07-06T00:58:56.310Z,0
2017-07-06T00:59:57.994Z,0
2017-07-06T01:00:59.851Z,0
2017-07-06T01:02:01.770Z,0
2017-07-06T01:03:04.541Z,0
2017-07-06T01:04:06.222Z,0
2017-07-06T01:05:08.015Z,0
2017-07-06T01:06:09.827Z,0
2017-07-06T01:07:12.296Z,0
2017-07-06T01:08:14.067Z,0
2017-07-06T01:09:15.857Z,0
2017-07-06T01:10:17.595Z,0
2017-07-06T01:11:20.429Z,0
2017-07-06T01:12:22.239Z,0
2017-07-06T01:13:24.007Z,0
2017-07-06T01:14:25.785Z,0
2017-07-06T01:15:27.611Z,0
2017-07-06T01:16:29.266Z,0
2017-07-06T01:17:30.987Z,0
2017-07-06T01:18:33.009Z,0
2017-07-06T01:19:34.939Z,0
2017-07-06T01:20:36.560Z,0
2017-07-06T01:21:38.990Z,0
2017-07-06T01:22:41.214Z,0
2017-07-06T01:23:42.926Z,0
2017-07-06T01:24:44.585Z,0
2017-07-06T01:25:46.320Z,0
2017-07-06T01:26:48.007Z,0
2017-07-06T01:27:49.809Z,0
2017-07-06T01:28:51.569Z,0
2017-07-06T01:29:53.346Z,0
2017-07-06T01:30:55.110Z,0
2017-07-06T01:31:56.857Z,0
2017-07-06T01:32:58.535Z,0
2017-07-06T01:34:00.428Z,0
2017-07-06T01:35:02.135Z,0
2017-07-06T01:36:04.009Z,0
2017-07-06T01:37:06.093Z,0
2017-07-06T01:38:07.873Z,0
2017-07-06T01:39:09.585Z,0
2017-07-06T01:40:11.399Z,0
2017-07-06T01:41:13.427Z,0
2017-07-06T01:42:15.251Z,0
2017-07-06T01:43:16.913Z,0
2017-07-06T01:44:18.683Z,0
2017-07-06T01:45:20.373Z,0
2017-07-06T01:46:22.076Z,0
2017-07-06T01:47:23.768Z,0
2017-07-06T01:48:25.715Z,0
2017-07-06T01:49:27.563Z,0
2017-07-06T01:50:29.979Z,0
2017-07-06T01:51:31.693Z,0
2017-07-06T01:52:33.651Z,0
2017-07-06T01:53:35.606Z,0
2017-07-06T01:54:37.611Z,0
2017-07-06T01:55:39.877Z,0
2017-07-06T01:56:41.837Z,0
2017-07-06T01:57:43.578Z,0
2017-07-06T01:58:45.899Z,0
2017-07-06T01:59:47.766Z,0
2017-07-06T02:00:49.657Z,0
2017-07-06T02:01:51.480Z,0
2017-07-06T02:02:53.302Z,0
2017-07-06T02:03:55.025Z,0
2017-07-06T02:04:57.420Z,0
2017-07-06T02:05:59.164Z,0
2017-07-06T02:07:00.998Z,0
2017-07-06T02:08:02.704Z,0
2017-07-06T02:09:05.532Z,0
2017-07-06T02:10:07.206Z,0
2017-07-06T02:11:09.010Z,0
2017-07-06T02:12:10.716Z,0
2017-07-06T02:13:12.521Z,0
2017-07-06T02:14:14.177Z,0
2017-07-06T02:15:16.081Z,0
2017-07-06T02:16:17.759Z,0
2017-07-06T02:17:19.674Z,0
2017-07-06T02:18:21.417Z,0
2017-07-06T02:19:23.171Z,0
2017-07-06T02:20:25.035Z,0
2017-07-06T02:21:26.917Z,0
2017-07-06T02:22:28.569Z,0
2017-07-06T02:23:30.297Z,0
2017-07-06T02:24:32.009Z,0
2017-07-06T02:25:33.807Z,0
2017-07-06T02:26:35.514Z,0
2017-07-06T02:27:37.303Z,0
2017-07-06T02:28:39.076Z,4
2017-07-06T02:29:40.908Z,4
2017-07-06T02:30:42.622Z,4
2017-07-06T02:31:44.543Z,4
2017-07-06T02:32:46.239Z,4
2017-07-06T02:33:48.179Z,0
2017-07-06T02:34:49.960Z,0
2017-07-06T02:35:51.915Z,4
2017-07-06T02:36:53.793Z,4
2017-07-06T02:37:55.752Z,4
2017-07-06T02:38:57.312Z,4
2017-07-06T02:39:59.199Z,4
2017-07-06T02:41:01.113Z,8
2017-07-06T02:42:03.127Z,4
2017-07-06T02:43:04.839Z,8
2017-07-06T02:44:06.743Z,8
2017-07-06T02:45:08.449Z,8
2017-07-06T02:46:12.373Z,8
2017-07-06T02:47:14.066Z,12
2017-07-06T02:48:15.958Z,12
2017-07-06T02:49:17.644Z,12
2017-07-06T02:50:19.519Z,16
2017-07-06T02:51:21.206Z,20
2017-07-06T02:52:24.075Z,24
2017-07-06T02:53:25.899Z,24
2017-07-06T02:54:27.784Z,24
2017-07-06T02:55:29.478Z,28
2017-07-06T02:56:31.228Z,32
2017-07-06T02:57:32.881Z,36
2017-07-06T02:58:34.717Z,40
2017-07-06T02:59:36.412Z,48
2017-07-06T03:00:38.114Z,52
2017-07-06T03:01:39.787Z,56
2017-07-06T03:02:41.631Z,64
2017-07-06T03:03:43.287Z,68
2017-07-06T03:04:45.114Z,76
2017-07-06T03:05:46.784Z,84
2017-07-06T03:06:48.610Z,92
2017-07-06T03:07:50.269Z,100
2017-07-06T03:08:53.115Z,108
2017-07-06T03:09:54.769Z,120
2017-07-06T03:10:56.628Z,128
2017-07-06T03:11:58.302Z,136
2017-07-06T03:13:01.123Z,148
2017-07-06T03:14:02.779Z,160
2017-07-06T03:15:04.617Z,172
2017-07-06T03:16:06.276Z,184
2017-07-06T03:17:08.199Z,196
2017-07-06T03:18:10.115Z,208
2017-07-06T03:19:12.034Z,224
2017-07-06T03:20:13.919Z,240
2017-07-06T03:21:15.854Z,252
2017-07-06T03:22:17.612Z,268
2017-07-06T03:23:19.415Z,284
2017-07-06T03:24:21.206Z,296
2017-07-06T03:25:23.124Z,316
2017-07-06T03:26:24.784Z,332
2017-07-06T03:27:26.735Z,352
2017-07-06T03:28:28.584Z,372
2017-07-06T03:29:30.460Z,392
2017-07-06T03:30:32.116Z,408
2017-07-06T03:31:34.009Z,432
2017-07-06T03:32:35.672Z,456
2017-07-06T03:33:37.519Z,480
2017-07-06T03:34:39.323Z,508
2017-07-06T03:35:41.002Z,540
2017-07-06T03:36:42.670Z,572
2017-07-06T03:37:44.404Z,612
2017-07-06T03:38:46.059Z,652
2017-07-06T03:39:47.873Z,708
2017-07-06T03:40:49.649Z,736
2017-07-06T03:41:51.505Z,764
2017-07-06T03:42:53.169Z,816
2017-07-06T03:43:55.013Z,864
2017-07-06T03:44:56.775Z,916
2017-07-06T03:45:58.478Z,964
2017-07-06T03:47:00.202Z,1000
2017-07-06T03:48:01.889Z,1012
2017-07-06T03:49:03.775Z,1028
2017-07-06T03:50:05.574Z,1080
2017-07-06T03:51:07.269Z,1136
2017-07-06T03:52:08.990Z,1184
2017-07-06T03:53:10.773Z,1228
2017-07-06T03:54:12.574Z,1284
2017-07-06T03:55:14.462Z,1316
2017-07-06T03:56:16.177Z,1340
2017-07-06T03:57:17.947Z,1364
2017-07-06T03:58:19.685Z,1416
2017-07-06T03:59:21.363Z,1476
2017-07-06T04:00:23.165Z,1576
2017-07-06T04:01:24.853Z,1708
2017-07-06T04:02:26.589Z,1852
2017-07-06T04:03:28.250Z,1992
2017-07-06T04:04:29.961Z,2124
2017-07-06T04:05:31.643Z,2252
2017-07-06T04:06:33.686Z,2336
2017-07-06T04:07:35.398Z,2400
2017-07-06T04:08:37.207Z,2468
2017-07-06T04:09:38.897Z,2572
2017-07-06T04:10:40.637Z,2676
2017-07-06T04:11:42.329Z,2764
2017-07-06T04:12:44.128Z,2848
2017-07-06T04:13:45.809Z,2924
2017-07-06T04:14:47.525Z,3000
2017-07-06T04:15:49.237Z,3064
2017-07-06T04:16:50.995Z,3104
2017-07-06T04:17:52.665Z,3180
2017-07-06T04:18:54.391Z,3260
2017-07-06T04:19:56.040Z,3332
2017-07-06T04:20:57.814Z,3412
2017-07-06T04:21:59.506Z,3484
2017-07-06T04:23:01.321Z,3568
2017-07-06T04:24:02.980Z,3648
2017-07-06T04:25:04.835Z,3732
2017-07-06T04:26:06.538Z,3820
2017-07-06T04:27:08.304Z,3916
2017-07-06T04:28:09.967Z,4028
2017-07-06T04:29:11.714Z,4144
2017-07-06T04:30:13.520Z,4248
2017-07-06T04:31:16.434Z,4368
2017-07-06T04:32:18.116Z,4444
2017-07-06T04:33:19.894Z,4516
2017-07-06T04:34:21.592Z,4580
2017-07-06T04:35:23.425Z,4632
2017-07-06T04:36:25.224Z,4680
2017-07-06T04:37:27.000Z,4708
2017-07-06T04:38:28.661Z,4736
2017-07-06T04:39:30.370Z,4780
2017-07-06T04:40:32.074Z,4856
2017-07-06T04:41:33.779Z,4968
2017-07-06T04:42:35.485Z,5112
2017-07-06T04:43:37.288Z,5284
2017-07-06T04:44:39.016Z,5388
2017-07-06T04:45:40.835Z,5452
2017-07-06T04:46:42.553Z,5436
2017-07-06T04:47:44.293Z,5396
2017-07-06T04:48:45.957Z,5468
2017-07-06T04:49:47.792Z,5608
2017-07-06T04:50:49.503Z,5700
2017-07-06T04:51:51.307Z,5688
2017-07-06T04:52:53.011Z,5752
2017-07-06T04:53:54.749Z,5904
2017-07-06T04:54:56.438Z,5964
2017-07-06T04:55:58.277Z,6052
2017-07-06T04:56:59.963Z,6280
2017-07-06T04:58:01.721Z,6692
2017-07-06T04:59:03.395Z,7600
2017-07-06T05:00:05.132Z,8268
2017-07-06T05:01:06.814Z,9072
2017-07-06T05:02:08.615Z,9588
2017-07-06T05:03:10.317Z,8760
2017-07-06T05:04:12.058Z,7520
2017-07-06T05:05:13.725Z,7020
2017-07-06T05:06:15.586Z,8172
2017-07-06T05:07:17.326Z,8588
2017-07-06T05:08:19.149Z,7636
2017-07-06T05:09:20.839Z,7432
2017-07-06T05:10:22.625Z,7384
2017-07-06T05:11:24.298Z,9300
2017-07-06T05:12:26.174Z,8956
2017-07-06T05:13:27.864Z,8696
2017-07-06T05:14:29.658Z,8328
2017-07-06T05:15:31.398Z,7616
2017-07-06T05:16:33.269Z,9100
2017-07-06T05:17:35.056Z,9764
2017-07-06T05:18:36.810Z,8644
2017-07-06T05:19:39.373Z,8068
2017-07-06T05:20:41.217Z,8176
2017-07-06T05:21:42.903Z,8088
2017-07-06T05:22:45.722Z,7780
2017-07-06T05:23:47.431Z,7320
2017-07-06T05:24:49.145Z,7172
2017-07-06T05:25:50.810Z,7168
2017-07-06T05:26:52.747Z,7184
2017-07-06T05:27:54.408Z,7192
2017-07-06T05:28:56.246Z,7112
2017-07-06T05:29:57.938Z,7084
2017-07-06T05:30:59.750Z,6892
2017-07-06T05:32:01.940Z,6784
2017-07-06T05:33:03.761Z,6696
2017-07-06T05:34:05.435Z,6800
2017-07-06T05:35:07.207Z,7880
2017-07-06T05:36:08.887Z,9832
2017-07-06T05:37:10.754Z,9584
2017-07-06T05:38:12.419Z,8348
2017-07-06T05:39:14.217Z,8420
2017-07-06T05:40:15.868Z,8200
2017-07-06T05:41:18.568Z,7856
2017-07-06T05:42:20.474Z,7868
2017-07-06T05:43:22.221Z,7368
2017-07-06T05:44:23.891Z,7548
2017-07-06T05:45:25.718Z,7480
2017-07-06T05:46:27.372Z,7140
2017-07-06T05:47:29.111Z,7088
2017-07-06T05:48:30.788Z,7052
2017-07-06T05:49:32.595Z,7064
2017-07-06T05:50:34.259Z,6976
2017-07-06T05:51:36.015Z,6984
2017-07-06T05:52:37.682Z,6976
2017-07-06T05:53:39.571Z,6988
2017-07-06T05:54:41.222Z,7036
2017-07-06T05:55:44.006Z,6940
2017-07-06T05:56:45.674Z,6916
2017-07-06T05:57:47.494Z,6872
2017-07-06T05:58:49.217Z,6828
2017-07-06T05:59:51.850Z,6776
2017-07-06T06:00:53.510Z,6808
2017-07-06T06:01:55.170Z,6828
2017-07-06T06:02:58.004Z,6812
2017-07-06T06:03:59.670Z,6844
2017-07-06T06:05:01.558Z,6864
2017-07-06T06:06:03.253Z,6864
2017-07-06T06:07:05.090Z,6872
2017-07-06T06:08:06.738Z,6880
2017-07-06T06:09:08.477Z,6868
2017-07-06T06:10:10.160Z,6884
2017-07-06T06:11:11.997Z,6884
2017-07-06T06:12:13.685Z,6876
2017-07-06T06:13:15.457Z,6888
2017-07-06T06:14:17.114Z,6868
2017-07-06T06:15:18.883Z,6876
2017-07-06T06:16:20.643Z,6864
2017-07-06T06:17:22.476Z,6840
2017-07-06T06:18:24.129Z,6808
2017-07-06T06:19:25.965Z,6796
2017-07-06T06:20:27.622Z,6808
2017-07-06T06:21:29.461Z,6820
2017-07-06T06:22:31.132Z,6844
2017-07-06T06:23:32.952Z,6856
2017-07-06T06:24:34.656Z,6884
2017-07-06T06:25:36.505Z,6892
2017-07-06T06:26:38.166Z,6928
2017-07-06T06:27:40.951Z,6932
2017-07-06T06:28:42.610Z,6948
2017-07-06T06:29:44.547Z,6956
2017-07-06T06:30:46.247Z,6936
2017-07-06T06:31:48.045Z,6916
2017-07-06T06:32:49.752Z,6888
2017-07-06T06:33:51.580Z,6856
2017-07-06T06:34:53.236Z,6856
2017-07-06T06:35:54.977Z,6844
2017-07-06T06:36:56.656Z,6836
2017-07-06T06:37:58.420Z,6832
2017-07-06T06:39:00.920Z,6840
2017-07-06T06:40:02.786Z,6840
2017-07-06T06:41:04.579Z,6828
2017-07-06T06:42:06.269Z,6816
2017-07-06T06:43:08.048Z,6780
2017-07-06T06:44:09.806Z,6772
2017-07-06T06:45:11.573Z,6752
2017-07-06T06:46:13.322Z,6768
2017-07-06T06:47:15.162Z,6728
2017-07-06T06:48:16.912Z,6684
2017-07-06T06:49:18.742Z,6696
2017-07-06T06:50:20.475Z,6668
2017-07-06T06:51:22.226Z,6640
2017-07-06T06:52:24.030Z,6628
2017-07-06T06:53:25.880Z,6636
2017-07-06T06:54:27.655Z,6644
2017-07-06T06:55:29.438Z,6656
2017-07-06T06:56:31.172Z,6748
2017-07-06T06:57:32.918Z,6676
2017-07-06T06:58:34.746Z,6680
2017-07-06T06:59:37.651Z,6692
2017-07-06T07:00:39.419Z,6684
2017-07-06T07:01:41.252Z,6712
2017-07-06T07:02:43.001Z,6700
2017-07-06T07:03:44.853Z,6680
2017-07-06T07:04:46.718Z,6656
2017-07-06T07:05:48.570Z,6644
2017-07-06T07:06:50.375Z,6596
2017-07-06T07:07:52.251Z,6556
2017-07-06T07:08:54.101Z,6560
2017-07-06T07:09:55.993Z,6548
2017-07-06T07:10:58.043Z,6540
2017-07-06T07:11:59.947Z,6520
2017-07-06T07:13:01.608Z,6500
2017-07-06T07:14:03.440Z,6508
2017-07-06T07:15:05.197Z,6492
2017-07-06T07:16:06.943Z,6476
2017-07-06T07:17:08.706Z,6476
2017-07-06T07:18:10.564Z,6444
2017-07-06T07:19:12.313Z,6500
2017-07-06T07:20:14.149Z,6548
2017-07-06T07:21:15.897Z,6572
2017-07-06T07:22:17.614Z,6556
2017-07-06T07:23:19.402Z,6568
2017-07-06T07:24:21.194Z,6644
2017-07-06T07:25:23.005Z,6560
2017-07-06T07:26:24.673Z,6540
2017-07-06T07:27:26.523Z,6564
2017-07-06T07:28:28.282Z,6580
2017-07-06T07:29:30.203Z,6564
2017-07-06T07:30:31.964Z,6520
2017-07-06T07:31:33.711Z,6412
2017-07-06T07:32:35.526Z,6208
2017-07-06T07:33:37.375Z,6444
2017-07-06T07:34:39.055Z,6460
2017-07-06T07:35:40.971Z,6440
2017-07-06T07:36:42.701Z,6428
2017-07-06T07:37:44.400Z,6296
2017-07-06T07:38:46.158Z,6396
2017-07-06T07:39:49.012Z,6388
2017-07-06T07:40:50.728Z,6352
2017-07-06T07:41:52.512Z,6348
2017-07-06T07:42:54.288Z,6376
2017-07-06T07:43:56.007Z,6380
2017-07-06T07:44:57.797Z,6384
2017-07-06T07:45:59.644Z,6376
2017-07-06T07:47:01.318Z,6288
2017-07-06T07:48:03.216Z,6316
2017-07-06T07:49:04.958Z,6280
2017-07-06T07:50:06.739Z,6288
2017-07-06T07:51:08.400Z,6232
2017-07-06T07:52:10.180Z,6328
2017-07-06T07:53:11.967Z,6544
2017-07-06T07:54:13.697Z,6860
2017-07-06T07:55:15.447Z,6956
2017-07-06T07:56:17.280Z,7028
2017-07-06T07:57:19.050Z,6924
2017-07-06T07:58:20.868Z,6580
2017-07-06T07:59:22.615Z,6132
2017-07-06T08:00:24.508Z,6032
2017-07-06T08:01:26.292Z,6372
2017-07-06T08:02:27.982Z,6520
2017-07-06T08:03:29.743Z,6540
2017-07-06T08:04:31.558Z,6532
2017-07-06T08:05:33.296Z,6512
2017-07-06T08:06:35.087Z,6496
2017-07-06T08:07:36.904Z,6484
2017-07-06T08:08:38.680Z,6440
2017-07-06T08:09:40.410Z,6400
2017-07-06T08:10:43.286Z,6424
2017-07-06T08:11:45.161Z,6400
2017-07-06T08:12:48.154Z,6340
2017-07-06T08:13:49.897Z,6252
2017-07-06T08:14:51.689Z,6180
2017-07-06T08:15:53.583Z,6144
2017-07-06T08:16:55.409Z,6108
2017-07-06T08:17:57.195Z,6080
2017-07-06T08:18:58.929Z,6060
2017-07-06T08:20:00.709Z,6056
2017-07-06T08:21:02.481Z,6052
2017-07-06T08:22:04.188Z,6048
2017-07-06T08:23:05.988Z,6040
2017-07-06T08:24:07.751Z,6284
2017-07-06T08:25:09.542Z,6036
2017-07-06T08:26:11.278Z,5984
2017-07-06T08:27:13.138Z,6092
2017-07-06T08:28:14.792Z,5984
2017-07-06T08:29:16.589Z,6024
2017-07-06T08:30:18.394Z,6016
2017-07-06T08:31:20.135Z,5932
2017-07-06T08:32:21.929Z,5964
2017-07-06T08:33:23.767Z,5944
2017-07-06T08:34:25.483Z,5944
2017-07-06T08:35:27.248Z,5952
2017-07-06T08:36:29.121Z,5936
2017-07-06T08:37:31.886Z,5892
2017-07-06T08:38:33.633Z,5812
2017-07-06T08:39:35.459Z,5832
2017-07-06T08:40:37.158Z,5812
2017-07-06T08:41:39.016Z,5780
2017-07-06T08:42:40.763Z,6252
2017-07-06T08:43:42.489Z,5772
2017-07-06T08:44:44.255Z,5768
2017-07-06T08:45:46.091Z,5752
2017-07-06T08:46:47.845Z,5680
2017-07-06T08:47:50.713Z,5676
2017-07-06T08:48:52.562Z,5704
2017-07-06T08:49:54.444Z,5688
2017-07-06T08:50:56.197Z,5668
2017-07-06T08:51:58.041Z,5640
2017-07-06T08:52:59.762Z,5564
2017-07-06T08:54:01.599Z,5628
2017-07-06T08:55:03.398Z,5632
2017-07-06T08:56:05.214Z,5620
2017-07-06T08:57:07.069Z,5616
2017-07-06T08:58:08.946Z,5644
2017-07-06T08:59:10.744Z,5628
2017-07-06T09:00:13.637Z,5548
2017-07-06T09:01:15.399Z,5596
2017-07-06T09:02:17.212Z,5600
2017-07-06T09:03:18.966Z,5576
2017-07-06T09:04:20.854Z,5584
2017-07-06T09:05:22.618Z,5476
2017-07-06T09:06:24.474Z,5556
2017-07-06T09:07:26.159Z,5556
2017-07-06T09:08:27.969Z,5548
2017-07-06T09:09:29.728Z,5580
2017-07-06T09:10:31.505Z,5528
2017-07-06T09:11:33.267Z,5516
2017-07-06T09:12:35.117Z,5512
2017-07-06T09:13:36.860Z,5524
2017-07-06T09:14:38.695Z,5524
2017-07-06T09:15:40.450Z,5548
2017-07-06T09:16:42.305Z,5556
2017-07-06T09:17:44.059Z,5608
2017-07-06T09:18:45.925Z,5604
2017-07-06T09:19:47.702Z,5612
2017-07-06T09:20:49.494Z,4684
2017-07-06T09:21:51.273Z,4628
2017-07-06T09:22:53.142Z,5380
2017-07-06T09:23:54.853Z,5544
2017-07-06T09:24:56.686Z,5644
2017-07-06T09:25:58.444Z,5644
2017-07-06T09:27:00.249Z,5676
2017-07-06T09:28:02.103Z,5676
2017-07-06T09:29:03.981Z,5640
2017-07-06T09:30:05.778Z,5592
2017-07-06T09:31:07.534Z,5676
2017-07-06T09:32:09.363Z,5700
2017-07-06T09:33:11.178Z,5680
2017-07-06T09:34:13.086Z,5360
2017-07-06T09:35:14.882Z,5464
2017-07-06T09:36:16.713Z,5544
2017-07-06T09:37:18.572Z,5484
2017-07-06T09:38:20.384Z,5552
2017-07-06T09:39:22.251Z,5532
2017-07-06T09:40:24.048Z,5548
2017-07-06T09:41:25.830Z,5524
2017-07-06T09:42:27.573Z,5516
2017-07-06T09:43:29.358Z,5504
2017-07-06T09:44:31.184Z,5304
2017-07-06T09:45:33.008Z,5376
2017-07-06T09:46:34.736Z,5316
2017-07-06T09:47:36.537Z,5456
2017-07-06T09:48:38.257Z,5476
2017-07-06T09:49:39.962Z,5492
2017-07-06T09:50:41.752Z,5588
2017-07-06T09:51:43.508Z,5928
2017-07-06T09:52:45.273Z,5604
2017-07-06T09:53:47.154Z,5548
2017-07-06T09:54:48.934Z,5784
2017-07-06T09:55:50.754Z,5624
2017-07-06T09:56:52.495Z,5684
2017-07-06T09:57:54.298Z,5792
2017-07-06T09:58:56.066Z,5944
2017-07-06T09:59:57.895Z,5880
2017-07-06T10:00:59.804Z,5872
2017-07-06T10:02:01.656Z,5876
2017-07-06T10:03:03.393Z,5640
2017-07-06T10:04:05.235Z,5732
2017-07-06T10:05:07.952Z,5760
2017-07-06T10:06:09.735Z,5708
2017-07-06T10:07:11.478Z,5816
2017-07-06T10:08:13.349Z,5804
2017-07-06T10:09:15.071Z,5736
2017-07-06T10:10:16.851Z,5732
2017-07-06T10:11:18.647Z,5828
2017-07-06T10:12:20.434Z,5780
2017-07-06T10:13:22.186Z,5712
2017-07-06T10:14:24.232Z,5640
2017-07-06T10:15:25.979Z,5716
2017-07-06T10:16:27.864Z,5680
2017-07-06T10:17:29.527Z,5480
2017-07-06T10:18:31.302Z,5888
2017-07-06T10:19:33.031Z,5968
2017-07-06T10:20:34.832Z,5996
2017-07-06T10:21:36.614Z,6028
2017-07-06T10:22:38.361Z,6104
2017-07-06T10:23:40.063Z,6060
2017-07-06T10:24:41.932Z,6100
2017-07-06T10:25:43.655Z,6124
2017-07-06T10:26:45.530Z,6144
2017-07-06T10:27:47.273Z,6184
2017-07-06T10:28:49.110Z,6212
2017-07-06T10:29:50.872Z,6244
2017-07-06T10:30:52.770Z,6356
2017-07-06T10:31:54.505Z,6440
2017-07-06T10:32:56.313Z,6396
2017-07-06T10:33:58.077Z,6284
2017-07-06T10:34:59.886Z,6204
2017-07-06T10:36:01.658Z,6184
2017-07-06T10:37:03.554Z,6380
2017-07-06T10:38:05.341Z,6340
2017-07-06T10:39:07.195Z,6448
2017-07-06T10:40:08.963Z,6444
2017-07-06T10:41:10.965Z,6508
2017-07-06T10:42:12.739Z,6684
2017-07-06T10:43:14.535Z,6888
2017-07-06T10:44:16.306Z,7056
2017-07-06T10:45:18.165Z,7140
2017-07-06T10:46:19.863Z,6528
2017-07-06T10:47:22.702Z,6876
2017-07-06T10:48:24.502Z,6788
2017-07-06T10:49:26.403Z,6312
2017-07-06T10:50:28.195Z,6156
2017-07-06T10:51:30.077Z,5988
2017-07-06T10:52:31.856Z,5872
2017-07-06T10:53:33.653Z,5524
2017-07-06T10:54:35.526Z,6100
2017-07-06T10:55:37.361Z,5932
2017-07-06T10:56:39.069Z,5740
2017-07-06T10:57:41.005Z,5744
2017-07-06T10:58:42.721Z,5672
2017-07-06T10:59:44.650Z,5588
2017-07-06T11:00:46.471Z,5576
2017-07-06T11:01:48.348Z,5580
2017-07-06T11:02:50.235Z,5524
2017-07-06T11:03:52.070Z,5552
2017-07-06T11:04:53.815Z,5584
2017-07-06T11:05:55.567Z,5600
2017-07-06T11:06:57.414Z,5576
2017-07-06T11:08:00.173Z,5536
2017-07-06T11:09:01.966Z,5512
2017-07-06T11:10:03.868Z,5988
2017-07-06T11:11:06.041Z,5592
2017-07-06T11:12:08.853Z,5660
2017-07-06T11:13:10.517Z,5668
2017-07-06T11:14:19.040Z,5484
2017-07-06T11:15:20.717Z,5436
2017-07-06T11:16:23.592Z,5524
2017-07-06T11:17:25.317Z,4852
2017-07-06T11:18:27.067Z,5472
2017-07-06T11:19:28.729Z,5392
2017-07-06T11:20:30.514Z,5412
2017-07-06T11:21:32.174Z,5416
2017-07-06T11:22:33.909Z,5392
2017-07-06T11:23:35.589Z,5388
2017-07-06T11:24:37.438Z,5484
2017-07-06T11:25:39.042Z,6616
2017-07-06T11:26:40.782Z,5516
2017-07-06T11:27:42.452Z,5436
2017-07-06T11:28:45.221Z,5452
2017-07-06T11:29:46.928Z,5432
2017-07-06T11:30:50.648Z,5432
2017-07-06T11:31:52.382Z,5472
2017-07-06T11:32:54.031Z,5332
2017-07-06T11:33:55.722Z,5340
2017-07-06T11:34:57.511Z,5344
2017-07-06T11:35:59.243Z,5344
2017-07-06T11:37:01.946Z,5416
2017-07-06T11:38:03.626Z,5316
2017-07-06T11:39:05.435Z,5320
2017-07-06T11:40:07.169Z,5328
2017-07-06T11:41:08.970Z,5344
2017-07-06T11:42:10.681Z,5308
2017-07-06T11:43:12.535Z,5348
2017-07-06T11:44:14.236Z,5356
2017-07-06T11:45:16.146Z,5384
2017-07-06T11:46:17.845Z,5384
2017-07-06T11:47:19.659Z,5372
2017-07-06T11:48:21.371Z,5376
2017-07-06T11:49:23.120Z,5348
2017-07-06T11:50:24.784Z,5360
2017-07-06T11:51:26.524Z,5368
2017-07-06T11:52:28.218Z,5824
2017-07-06T11:53:30.116Z,5512
2017-07-06T11:54:31.815Z,5460
2017-07-06T11:55:33.511Z,5480
2017-07-06T11:56:35.204Z,5508
2017-07-06T11:57:36.888Z,5484
2017-07-06T11:58:38.552Z,5552
2017-07-06T11:59:40.287Z,5352
2017-07-06T12:00:41.994Z,5540
2017-07-06T12:01:43.832Z,6632
2017-07-06T12:02:45.459Z,5124
2017-07-06T12:03:47.177Z,5480
2017-07-06T12:04:48.870Z,5428
2017-07-06T12:05:50.598Z,5512
2017-07-06T12:06:52.335Z,5424
2017-07-06T12:07:54.137Z,5456
2017-07-06T12:08:55.999Z,5460
2017-07-06T12:09:57.716Z,5016
2017-07-06T12:10:59.625Z,5616
2017-07-06T12:12:01.432Z,5528
2017-07-06T12:13:04.159Z,4632
2017-07-06T12:14:05.835Z,4672
2017-07-06T12:15:07.681Z,5284
2017-07-06T12:16:09.350Z,5444
2017-07-06T12:17:11.156Z,5432
2017-07-06T12:18:12.839Z,5304
2017-07-06T12:19:14.644Z,5316
2017-07-06T12:20:16.308Z,5312
2017-07-06T12:21:18.251Z,5288
2017-07-06T12:22:19.952Z,5260
2017-07-06T12:23:22.841Z,5236
2017-07-06T12:24:24.581Z,5248
2017-07-06T12:25:26.481Z,4868
2017-07-06T12:26:28.148Z,5272
2017-07-06T12:27:30.010Z,5272
2017-07-06T12:28:31.666Z,5216
2017-07-06T12:29:33.492Z,5308
2017-07-06T12:30:35.214Z,5156
2017-07-06T12:31:37.008Z,5180
2017-07-06T12:32:38.718Z,5676
2017-07-06T12:33:40.457Z,5356
2017-07-06T12:34:42.182Z,5232
2017-07-06T12:35:43.904Z,5160
2017-07-06T12:36:45.595Z,5192
2017-07-06T12:37:47.505Z,5268
2017-07-06T12:38:49.303Z,5208
2017-07-06T12:39:51.041Z,4240
2017-07-06T12:40:52.871Z,5268
2017-07-06T12:41:54.653Z,5288
2017-07-06T12:42:57.473Z,5380
2017-07-06T12:43:59.264Z,5272
2017-07-06T12:45:01.103Z,5324
2017-07-06T12:46:02.864Z,5464
2017-07-06T12:47:04.727Z,5332
2017-07-06T12:48:06.519Z,5412
2017-07-06T12:49:08.274Z,5432
2017-07-06T12:50:10.195Z,5488
2017-07-06T12:51:12.065Z,5456
2017-07-06T12:52:13.840Z,5464
2017-07-06T12:53:15.644Z,5392
2017-07-06T12:54:17.455Z,5352
2017-07-06T12:55:19.274Z,5432
2017-07-06T12:56:20.997Z,4872
2017-07-06T12:57:22.844Z,5048
2017-07-06T12:58:24.648Z,5276
2017-07-06T12:59:26.410Z,5204
2017-07-06T13:00:28.336Z,5336
2017-07-06T13:01:30.132Z,5300
2017-07-06T13:02:32.177Z,5404
2017-07-06T13:03:34.019Z,5344
2017-07-06T13:04:35.904Z,5556
2017-07-06T13:05:37.702Z,5616
2017-07-06T13:06:39.466Z,5508
2017-07-06T13:07:41.251Z,5516
2017-07-06T13:08:43.027Z,5712
2017-07-06T13:09:44.880Z,5304
2017-07-06T13:10:46.570Z,5580
2017-07-06T13:11:48.411Z,5724
2017-07-06T13:12:50.279Z,5272
2017-07-06T13:13:51.984Z,5332
2017-07-06T13:14:53.832Z,5392
2017-07-06T13:15:55.641Z,5592
2017-07-06T13:16:57.481Z,5608
2017-07-06T13:17:59.320Z,5800
2017-07-06T13:19:01.147Z,6040
2017-07-06T13:20:02.970Z,6108
2017-07-06T13:21:04.675Z,6272
2017-07-06T13:22:06.560Z,6256
2017-07-06T13:23:08.459Z,6096
2017-07-06T13:24:10.268Z,6324
2017-07-06T13:25:12.027Z,6400
2017-07-06T13:26:13.843Z,6520
2017-07-06T13:27:15.704Z,6456
2017-07-06T13:28:17.415Z,6548
2017-07-06T13:29:19.217Z,6636
2017-07-06T13:30:21.067Z,6664
2017-07-06T13:31:23.009Z,6744
2017-07-06T13:32:24.833Z,6800
2017-07-06T13:33:26.607Z,6752
2017-07-06T13:34:28.411Z,6868
2017-07-06T13:35:30.205Z,6940
2017-07-06T13:36:31.998Z,6936
2017-07-06T13:37:33.896Z,6952
2017-07-06T13:38:35.607Z,6948
2017-07-06T13:39:37.320Z,6968
2017-07-06T13:40:39.069Z,6900
2017-07-06T13:41:40.804Z,6996
2017-07-06T13:42:42.641Z,6848
2017-07-06T13:43:44.423Z,6840
2017-07-06T13:44:46.206Z,6860
2017-07-06T13:45:47.999Z,6916
2017-07-06T13:46:49.951Z,7028
2017-07-06T13:47:51.757Z,7172
2017-07-06T13:48:53.629Z,7292
2017-07-06T13:49:55.505Z,7508
2017-07-06T13:50:57.351Z,7528
2017-07-06T13:51:59.099Z,7708
2017-07-06T13:53:01.027Z,7996
2017-07-06T13:54:02.836Z,8588
2017-07-06T13:55:04.733Z,8868
2017-07-06T13:56:06.430Z,8384
2017-07-06T13:57:08.349Z,8248
2017-07-06T13:58:10.159Z,8324
2017-07-06T13:59:11.999Z,8488
2017-07-06T14:00:13.769Z,8448
2017-07-06T14:01:15.644Z,8044
2017-07-06T14:02:17.425Z,7748